createdAt,value
2023-03-20T00:01:45.494Z,25.60
2023-03-20T00:03:52.718Z,25.60
2023-03-20T00:05:59.706Z,25.70
2023-03-20T00:08:07.099Z,25.80
2023-03-20T00:10:14.839Z,25.80
2023-03-20T00:12:26.494Z,25.90
2023-03-20T00:14:34.933Z,25.90
2023-03-20T00:16:43.297Z,26.00
2023-03-20T00:18:50.016Z,26.10
2023-03-20T00:20:56.837Z,26.10
2023-03-20T00:23:03.765Z,26.20
2023-03-20T00:25:15.706Z,26.20
2023-03-20T00:27:22.634Z,26.30
2023-03-20T00:29:31.862Z,26.40
2023-03-20T00:31:42.760Z,26.50
2023-03-20T00:33:49.861Z,26.50
2023-03-20T00:35:57.814Z,26.60
2023-03-20T00:38:04.580Z,26.60
2023-03-20T00:40:15.348Z,26.70
2023-03-20T00:42:25.084Z,26.70
2023-03-20T00:44:36.059Z,26.70
2023-03-20T00:46:45.190Z,26.80
2023-03-20T00:48:52.982Z,26.80
2023-03-20T00:51:00.784Z,26.90
2023-03-20T00:53:07.501Z,26.90
2023-03-20T00:55:14.733Z,27.00
2023-03-20T00:57:25.470Z,27.10
2023-03-20T00:59:36.579Z,27.20
2023-03-20T01:01:45.259Z,27.20
2023-03-20T01:03:52.265Z,27.30
2023-03-20T01:06:00.168Z,27.40
2023-03-20T01:08:09.036Z,27.40
2023-03-20T01:10:16.423Z,27.50
2023-03-20T01:12:23.756Z,27.50
2023-03-20T01:14:30.734Z,27.60
2023-03-20T01:16:38.442Z,27.70
2023-03-20T01:18:47.142Z,27.80
2023-03-20T01:20:55.210Z,27.90
2023-03-20T01:23:02.380Z,28.00
2023-03-20T01:25:10.160Z,28.00
2023-03-20T01:27:18.837Z,28.10
2023-03-20T01:29:28.220Z,28.10
2023-03-20T01:31:35.185Z,28.20
2023-03-20T01:33:42.744Z,28.30
2023-03-20T01:35:53.548Z,28.40
2023-03-20T01:38:00.636Z,28.60
2023-03-20T01:40:13.447Z,28.60
2023-03-20T01:42:20.905Z,28.60
2023-03-20T01:44:31.349Z,28.70
2023-03-20T01:46:41.667Z,28.70
2023-03-20T01:49:11.874Z,28.70
2023-03-20T01:51:20.999Z,28.70
2023-03-20T01:53:31.949Z,28.80
2023-03-20T01:55:41.911Z,28.90
2023-03-20T01:57:50.277Z,28.90
2023-03-20T02:00:04.162Z,28.90
2023-03-20T02:02:25.380Z,29.00
2023-03-20T02:04:37.435Z,29.00
2023-03-20T02:06:50.961Z,29.10
2023-03-20T02:09:12.368Z,29.20
2023-03-20T02:11:25.031Z,29.30
2023-03-20T02:13:33.897Z,29.30
2023-03-20T02:15:59.617Z,29.40
2023-03-20T02:18:32.036Z,29.50
2023-03-20T02:20:58.111Z,29.60
2023-03-20T02:23:37.294Z,29.60
2023-03-20T02:26:23.340Z,29.70
2023-03-20T02:29:14.497Z,29.80
2023-03-20T02:32:00.540Z,29.90
2023-03-20T02:34:36.145Z,29.90
2023-03-20T02:37:09.280Z,29.90
2023-03-20T02:39:42.211Z,30.00
2023-03-20T02:41:58.000Z,30.10
2023-03-20T02:44:11.488Z,30.20
2023-03-20T02:46:29.660Z,30.30
2023-03-20T02:48:48.366Z,30.50
2023-03-20T02:51:05.226Z,30.60
2023-03-20T02:53:21.524Z,30.60
2023-03-20T02:55:38.583Z,30.70
2023-03-20T02:57:55.955Z,30.80
2023-03-20T03:00:12.764Z,30.90
2023-03-20T03:02:24.316Z,31.00
2023-03-20T03:04:36.394Z,31.10
2023-03-20T03:06:47.056Z,31.20
2023-03-20T03:08:58.285Z,31.20
2023-03-20T03:11:09.699Z,31.30
2023-03-20T03:13:21.187Z,31.30
2023-03-20T03:15:31.397Z,31.40
2023-03-20T03:17:40.903Z,31.60
2023-03-20T03:19:52.373Z,31.70
2023-03-20T03:21:59.395Z,31.70
2023-03-20T03:24:06.731Z,31.80
2023-03-20T03:26:21.345Z,31.90
2023-03-20T03:28:38.091Z,32.00
2023-03-20T03:30:46.502Z,32.00
2023-03-20T03:33:00.277Z,32.00
2023-03-20T03:35:09.619Z,32.10
2023-03-20T03:37:24.892Z,32.20
2023-03-20T03:39:40.623Z,32.20
2023-03-20T03:41:55.302Z,32.30
2023-03-20T03:44:10.602Z,32.40
2023-03-20T03:46:25.560Z,32.50
2023-03-20T03:48:37.102Z,32.50
2023-03-20T03:50:49.709Z,32.70
2023-03-20T03:53:00.729Z,32.80
2023-03-20T03:55:11.342Z,33.00
2023-03-20T03:57:41.206Z,33.00
2023-03-20T03:59:55.255Z,33.20
2023-03-20T04:02:04.633Z,33.30
2023-03-20T04:04:13.872Z,33.30
2023-03-20T04:06:22.174Z,33.40
2023-03-20T04:08:30.893Z,33.50
2023-03-20T04:10:39.573Z,33.50
2023-03-20T04:12:50.118Z,33.60
2023-03-20T04:14:56.891Z,33.60
2023-03-20T04:17:05.864Z,33.80
2023-03-20T04:19:12.841Z,33.80
2023-03-20T04:21:20.446Z,33.90
2023-03-20T04:23:28.187Z,34.00
2023-03-20T04:25:35.963Z,34.10
2023-03-20T04:27:43.160Z,34.20
2023-03-20T04:30:00.274Z,34.20
2023-03-20T04:32:27.373Z,34.20
2023-03-20T04:34:48.584Z,34.10
2023-03-20T04:37:18.032Z,34.00
2023-03-20T04:39:35.781Z,34.10
2023-03-20T04:41:42.482Z,34.10
2023-03-20T04:43:49.525Z,34.30
2023-03-20T04:45:58.037Z,34.30
2023-03-20T04:48:05.203Z,34.30
2023-03-20T04:50:12.950Z,34.20
2023-03-20T04:52:19.926Z,34.30
2023-03-20T04:54:26.753Z,34.20
2023-03-20T04:56:33.726Z,34.20
2023-03-20T04:58:56.166Z,34.10
2023-03-20T05:01:05.624Z,34.10
2023-03-20T05:03:12.423Z,34.20
2023-03-20T05:05:20.219Z,34.10
2023-03-20T05:07:27.246Z,34.00
2023-03-20T05:09:40.215Z,34.00
2023-03-20T05:11:48.418Z,34.20
2023-03-20T05:14:18.180Z,34.40
2023-03-20T05:16:49.603Z,34.50
2023-03-20T05:19:20.261Z,34.70
2023-03-20T05:21:50.192Z,34.80
2023-03-20T05:23:57.512Z,34.90
2023-03-20T05:26:36.446Z,35.00
2023-03-20T05:29:10.802Z,34.90
2023-03-20T05:31:38.114Z,34.80
2023-03-20T05:34:07.666Z,34.70
2023-03-20T05:36:32.103Z,34.70
2023-03-20T05:38:57.766Z,34.80
2023-03-20T05:41:25.274Z,34.90
2023-03-20T05:43:46.227Z,34.90
2023-03-20T05:46:04.474Z,34.80
2023-03-20T05:48:31.672Z,34.70
2023-03-20T05:51:18.382Z,34.60
2023-03-20T05:53:48.376Z,34.80
2023-03-20T05:56:04.595Z,35.00
2023-03-20T05:58:20.885Z,35.30
2023-03-20T06:01:06.157Z,35.40
2023-03-20T06:03:31.587Z,35.50
2023-03-20T06:05:49.095Z,35.60
2023-03-20T06:07:57.715Z,35.70
2023-03-20T06:10:05.416Z,35.80
2023-03-20T06:12:12.732Z,35.90
2023-03-20T06:14:20.326Z,36.00
2023-03-20T06:16:35.034Z,36.00
2023-03-20T06:18:41.807Z,36.10
2023-03-20T06:20:49.397Z,36.00
2023-03-20T06:22:58.281Z,35.90
2023-03-20T06:25:05.350Z,35.90
2023-03-20T06:27:18.059Z,35.90
2023-03-20T06:29:28.058Z,36.00
2023-03-20T06:31:44.047Z,36.00
2023-03-20T06:34:00.551Z,35.90
2023-03-20T06:36:09.159Z,35.80
2023-03-20T06:38:18.488Z,35.80
2023-03-20T06:40:25.773Z,35.90
2023-03-20T06:42:33.933Z,35.80
2023-03-20T06:44:42.083Z,35.70
2023-03-20T06:47:02.728Z,35.50
2023-03-20T06:49:10.784Z,35.50
2023-03-20T06:51:18.370Z,35.40
2023-03-20T06:53:32.620Z,35.30
2023-03-20T06:55:55.829Z,35.20
2023-03-20T06:58:02.602Z,35.00
2023-03-20T07:00:13.149Z,35.00
2023-03-20T07:02:19.987Z,35.00
2023-03-20T07:04:27.420Z,34.90
2023-03-20T07:06:38.955Z,34.80
2023-03-20T07:08:48.082Z,34.70
2023-03-20T07:10:56.238Z,34.50
2023-03-20T07:13:03.522Z,34.50
2023-03-20T07:15:12.293Z,34.70
2023-03-20T07:17:19.578Z,34.80
2023-03-20T07:19:27.119Z,34.80
2023-03-20T07:21:37.218Z,34.90
2023-03-20T07:23:44.403Z,35.00
2023-03-20T07:25:53.238Z,35.10
2023-03-20T07:28:00.760Z,35.10
2023-03-20T07:30:09.888Z,35.20
2023-03-20T07:32:18.107Z,35.20
2023-03-20T07:34:29.420Z,35.20
2023-03-20T07:36:38.447Z,35.20
2023-03-20T07:38:46.290Z,35.20
2023-03-20T07:40:58.028Z,35.20
2023-03-20T07:43:04.804Z,35.30
2023-03-20T07:45:41.060Z,35.30
2023-03-20T07:47:49.630Z,35.30
2023-03-20T07:49:56.602Z,35.50
2023-03-20T07:52:03.990Z,35.60
2023-03-20T07:54:11.273Z,35.70
2023-03-20T07:56:20.095Z,35.70
2023-03-20T07:58:27.072Z,35.60
2023-03-20T08:00:34.096Z,35.40
2023-03-20T08:02:40.869Z,35.30
2023-03-20T08:04:48.406Z,35.20
2023-03-20T08:06:55.185Z,35.10
2023-03-20T08:09:02.822Z,35.00
2023-03-20T08:11:10.110Z,34.90
2023-03-20T08:13:19.083Z,34.90
2023-03-20T08:15:26.113Z,34.90
2023-03-20T08:17:33.520Z,34.90
2023-03-20T08:19:41.088Z,35.00
2023-03-20T08:21:48.322Z,35.20
2023-03-20T08:23:55.044Z,35.20
2023-03-20T08:26:01.990Z,35.30
2023-03-20T08:28:09.202Z,35.30
2023-03-20T08:30:18.845Z,35.30
2023-03-20T08:32:27.305Z,35.40
2023-03-20T08:34:36.180Z,35.40
2023-03-20T08:36:42.947Z,35.30
2023-03-20T08:38:51.052Z,35.20
2023-03-20T08:40:57.822Z,35.10
2023-03-20T08:43:06.547Z,35.10
2023-03-20T08:45:14.081Z,35.10
2023-03-20T08:47:23.366Z,35.10
2023-03-20T08:49:30.712Z,35.00
2023-03-20T08:51:38.285Z,34.90
2023-03-20T08:53:45.416Z,34.80
2023-03-20T08:55:53.211Z,34.80
2023-03-20T08:57:59.982Z,34.80
2023-03-20T09:00:07.532Z,34.80
2023-03-20T09:02:15.209Z,34.90
2023-03-20T09:04:24.396Z,34.90
2023-03-20T09:06:31.421Z,34.80
2023-03-20T09:08:38.814Z,34.70
2023-03-20T09:10:46.045Z,34.60
2023-03-20T09:12:53.275Z,34.50
2023-03-20T09:14:59.997Z,34.40
2023-03-20T09:17:07.021Z,34.40
2023-03-20T09:19:13.846Z,34.40
2023-03-20T09:21:22.943Z,34.40
2023-03-20T09:23:30.153Z,34.50
2023-03-20T09:25:37.667Z,34.50
2023-03-20T09:27:44.725Z,34.50
2023-03-20T09:29:51.547Z,34.50
2023-03-20T09:31:58.266Z,34.50
2023-03-20T09:34:05.307Z,34.60
2023-03-20T09:36:14.237Z,34.60
2023-03-20T09:38:23.037Z,34.60
2023-03-20T09:40:32.939Z,34.50
2023-03-20T09:42:52.613Z,34.50
2023-03-20T09:45:08.652Z,34.40
2023-03-20T09:47:26.080Z,34.40
2023-03-20T09:49:43.699Z,34.40
2023-03-20T09:51:54.799Z,34.30
2023-03-20T09:54:08.095Z,34.30
2023-03-20T09:56:20.599Z,34.30
2023-03-20T09:58:29.982Z,34.20
2023-03-20T10:00:39.365Z,34.20
2023-03-20T10:02:53.576Z,34.20
2023-03-20T10:05:00.796Z,34.10
2023-03-20T10:07:09.055Z,34.20
2023-03-20T10:09:26.067Z,34.10
2023-03-20T10:11:53.575Z,34.10
2023-03-20T10:14:19.656Z,34.00
2023-03-20T10:16:41.591Z,34.00
2023-03-20T10:18:54.235Z,34.00
2023-03-20T10:21:05.719Z,34.00
2023-03-20T10:23:22.053Z,34.00
2023-03-20T10:25:34.571Z,34.00
2023-03-20T10:27:46.225Z,33.90
2023-03-20T10:30:01.600Z,33.90
2023-03-20T10:32:15.926Z,33.90
2023-03-20T10:34:47.224Z,33.80
2023-03-20T10:37:08.191Z,33.90
2023-03-20T10:39:20.943Z,33.80
2023-03-20T10:41:34.112Z,33.80
2023-03-20T10:43:43.479Z,33.80
2023-03-20T10:45:53.702Z,33.80
2023-03-20T10:48:03.990Z,33.80
2023-03-20T10:50:19.671Z,33.70
2023-03-20T10:52:30.857Z,33.70
2023-03-20T10:54:42.089Z,33.60
2023-03-20T10:56:52.800Z,33.50
2023-03-20T10:59:07.157Z,33.40
2023-03-20T11:01:14.352Z,33.30
2023-03-20T11:03:25.921Z,33.20
2023-03-20T11:05:36.773Z,33.20
2023-03-20T11:07:44.276Z,33.10
2023-03-20T11:10:09.847Z,33.00
2023-03-20T11:12:23.267Z,33.00
2023-03-20T11:14:36.109Z,33.00
2023-03-20T11:16:43.409Z,33.00
2023-03-20T11:18:51.674Z,32.90
2023-03-20T11:21:00.545Z,32.90
2023-03-20T11:23:09.468Z,32.80
2023-03-20T11:25:32.711Z,32.70
2023-03-20T11:27:41.495Z,32.60
2023-03-20T11:29:52.620Z,32.50
2023-03-20T11:32:09.490Z,32.40
2023-03-20T11:34:28.895Z,32.30
2023-03-20T11:36:38.537Z,32.10
2023-03-20T11:38:49.555Z,32.00
2023-03-20T11:40:58.429Z,31.90
2023-03-20T11:43:14.390Z,31.80
2023-03-20T11:45:21.834Z,31.80
2023-03-20T11:47:31.797Z,31.80
2023-03-20T11:49:51.319Z,31.70
2023-03-20T11:52:04.438Z,31.60
2023-03-20T11:54:18.943Z,31.60
2023-03-20T11:56:27.969Z,31.50
2023-03-20T11:58:38.476Z,31.50
2023-03-20T12:00:46.376Z,31.50
2023-03-20T12:02:53.859Z,31.40
2023-03-20T12:05:04.222Z,31.40
2023-03-20T12:07:17.443Z,31.30
2023-03-20T12:09:39.452Z,31.20
2023-03-20T12:11:49.318Z,31.10
2023-03-20T12:14:01.472Z,31.10
2023-03-20T12:16:10.998Z,31.00
2023-03-20T12:18:25.300Z,31.00
2023-03-20T12:20:37.581Z,30.90
2023-03-20T12:22:54.155Z,30.80
2023-03-20T12:25:07.225Z,30.80
2023-03-20T12:27:28.645Z,30.80
2023-03-20T12:29:46.328Z,30.70
2023-03-20T12:31:59.182Z,30.70
2023-03-20T12:34:11.587Z,30.60
2023-03-20T12:36:20.970Z,30.60
2023-03-20T12:38:32.732Z,30.60
2023-03-20T12:40:45.482Z,30.60
2023-03-20T12:43:04.795Z,30.50
2023-03-20T12:45:16.477Z,30.50
2023-03-20T12:47:48.593Z,30.50
2023-03-20T12:50:01.977Z,30.50
2023-03-20T12:52:16.167Z,30.50
2023-03-20T12:54:42.596Z,30.50
2023-03-20T12:57:10.362Z,30.50
2023-03-20T12:59:26.715Z,30.40
2023-03-20T13:01:39.296Z,30.40
2023-03-20T13:04:00.379Z,30.40
2023-03-20T13:06:12.935Z,30.40
2023-03-20T13:08:54.158Z,30.40
2023-03-20T13:11:07.079Z,30.40
2023-03-20T13:13:23.327Z,30.40
2023-03-20T13:15:44.992Z,30.40
2023-03-20T13:17:59.186Z,30.40
2023-03-20T13:20:24.033Z,30.30
2023-03-20T13:22:40.892Z,30.30
2023-03-20T13:24:51.349Z,30.30
2023-03-20T13:27:06.828Z,30.20
2023-03-20T13:29:22.557Z,30.20
2023-03-20T13:31:42.708Z,30.10
2023-03-20T13:33:56.786Z,30.00
2023-03-20T13:36:10.321Z,29.90
2023-03-20T13:38:22.729Z,29.80
2023-03-20T13:40:32.067Z,29.70
2023-03-20T13:42:42.511Z,29.70
2023-03-20T13:44:50.365Z,29.70
2023-03-20T13:47:00.341Z,29.60
2023-03-20T13:49:11.223Z,29.60
2023-03-20T13:51:28.646Z,29.60
2023-03-20T13:53:45.249Z,29.60
2023-03-20T13:55:59.083Z,29.50
2023-03-20T13:58:24.698Z,29.40
2023-03-20T14:00:36.961Z,29.40
2023-03-20T14:03:06.164Z,29.40
2023-03-20T14:05:22.758Z,29.40
2023-03-20T14:07:34.647Z,29.40
2023-03-20T14:09:41.775Z,29.40
2023-03-20T14:11:48.545Z,29.40
2023-03-20T14:13:59.461Z,29.40
2023-03-20T14:16:10.899Z,29.40
2023-03-20T14:18:18.432Z,29.40
2023-03-20T14:20:36.403Z,29.40
2023-03-20T14:22:45.646Z,29.40
2023-03-20T14:24:59.791Z,29.40
2023-03-20T14:27:08.612Z,29.30
2023-03-20T14:29:35.608Z,29.30
2023-03-20T14:31:46.219Z,29.40
2023-03-20T14:34:12.760Z,29.30
2023-03-20T14:36:25.571Z,29.30
2023-03-20T14:38:38.076Z,29.20
2023-03-20T14:40:52.637Z,29.20
2023-03-20T14:43:03.859Z,29.10
2023-03-20T14:45:48.532Z,29.20
2023-03-20T14:48:02.862Z,29.20
2023-03-20T14:50:17.376Z,29.20
2023-03-20T14:52:41.804Z,29.20
2023-03-20T14:54:56.317Z,29.20
2023-03-20T14:57:13.832Z,29.30
2023-03-20T14:59:21.373Z,29.20
2023-03-20T15:01:45.987Z,29.10
2023-03-20T15:03:55.651Z,29.10
2023-03-20T15:06:07.088Z,29.00
2023-03-20T15:08:22.578Z,29.00
2023-03-20T15:10:29.845Z,28.90
2023-03-20T15:12:40.250Z,28.90
2023-03-20T15:14:53.840Z,28.80
2023-03-20T15:17:05.007Z,28.80
2023-03-20T15:19:20.757Z,28.80
2023-03-20T15:21:33.195Z,28.80
2023-03-20T15:23:45.509Z,28.80
2023-03-20T15:25:53.754Z,28.80
2023-03-20T15:28:01.098Z,28.80
2023-03-20T15:30:08.793Z,28.80
2023-03-20T15:32:16.227Z,28.80
2023-03-20T15:34:26.641Z,28.80
2023-03-20T15:36:38.058Z,28.80
2023-03-20T15:38:49.042Z,28.80
2023-03-20T15:40:56.593Z,28.80
2023-03-20T15:43:06.983Z,28.80
2023-03-20T15:45:28.701Z,28.80
2023-03-20T15:47:38.080Z,28.90
2023-03-20T15:49:46.185Z,28.80
2023-03-20T15:51:53.932Z,28.80
2023-03-20T15:54:03.219Z,28.80
2023-03-20T15:56:18.355Z,28.70
2023-03-20T15:58:26.896Z,28.60
2023-03-20T16:00:35.384Z,28.60
2023-03-20T16:02:43.208Z,28.60
2023-03-20T16:04:52.150Z,28.50
2023-03-20T16:07:00.777Z,28.40
2023-03-20T16:09:11.558Z,28.40
2023-03-20T16:11:20.690Z,28.40
2023-03-20T16:13:28.279Z,28.40
2023-03-20T16:15:37.397Z,28.30
2023-03-20T16:17:44.175Z,28.30
2023-03-20T16:19:51.515Z,28.30
2023-03-20T16:22:01.049Z,28.30
2023-03-20T16:24:14.067Z,28.20
2023-03-20T16:26:22.990Z,28.10
2023-03-20T16:28:30.485Z,28.00
2023-03-20T16:30:38.828Z,28.00
2023-03-20T16:32:48.285Z,27.90
2023-03-20T16:34:56.749Z,27.90
2023-03-20T16:37:05.344Z,27.90
2023-03-20T16:39:21.908Z,28.00
2023-03-20T16:41:34.610Z,28.00
2023-03-20T16:43:42.711Z,28.00
2023-03-20T16:45:53.991Z,28.00
2023-03-20T16:48:27.957Z,28.00
2023-03-20T16:50:39.224Z,28.00
2023-03-20T16:52:51.027Z,28.00
2023-03-20T16:55:00.816Z,28.00
2023-03-20T16:57:12.805Z,28.10
2023-03-20T16:59:22.389Z,28.10
2023-03-20T17:01:32.080Z,28.00
2023-03-20T17:03:41.105Z,28.00
2023-03-20T17:05:54.427Z,27.90
2023-03-20T17:08:09.701Z,27.90
2023-03-20T17:10:25.484Z,27.90
2023-03-20T17:12:37.632Z,27.90
2023-03-20T17:14:46.146Z,27.90
2023-03-20T17:16:59.216Z,27.90
2023-03-20T17:19:08.392Z,27.90
2023-03-20T17:21:15.369Z,27.90
2023-03-20T17:23:24.868Z,27.80
2023-03-20T17:25:33.629Z,27.80
2023-03-20T17:27:41.934Z,27.80
2023-03-20T17:29:50.346Z,27.70
2023-03-20T17:31:57.867Z,27.70
2023-03-20T17:34:04.815Z,27.70
2023-03-20T17:36:19.515Z,27.70
2023-03-20T17:38:26.749Z,27.70
2023-03-20T17:40:35.840Z,27.70
2023-03-20T17:42:44.292Z,27.70
2023-03-20T17:44:51.714Z,27.70
2023-03-20T17:46:59.415Z,27.70
2023-03-20T17:49:09.318Z,27.60
2023-03-20T17:51:16.448Z,27.70
2023-03-20T17:53:25.779Z,27.60
2023-03-20T17:55:34.548Z,27.60
2023-03-20T17:57:43.266Z,27.50
2023-03-20T17:59:50.865Z,27.50
2023-03-20T18:01:57.800Z,27.60
2023-03-20T18:04:05.012Z,27.50
2023-03-20T18:06:18.189Z,27.50
2023-03-20T18:08:26.140Z,27.50
2023-03-20T18:10:36.306Z,27.50
2023-03-20T18:12:43.365Z,27.40
2023-03-20T18:14:50.611Z,27.40
2023-03-20T18:16:57.628Z,27.30
2023-03-20T18:19:04.861Z,27.30
2023-03-20T18:21:14.602Z,27.40
2023-03-20T18:23:21.940Z,27.30
2023-03-20T18:25:29.328Z,27.10
2023-03-20T18:27:37.995Z,27.10
2023-03-20T18:29:44.820Z,27.00
2023-03-20T18:31:52.199Z,26.90
2023-03-20T18:33:59.180Z,26.90
2023-03-20T18:36:06.223Z,26.80
2023-03-20T18:38:15.318Z,26.80
2023-03-20T18:40:27.073Z,26.80
2023-03-20T18:42:33.759Z,26.70
2023-03-20T18:44:42.356Z,26.70
2023-03-20T18:46:49.241Z,26.70
2023-03-20T18:48:56.514Z,26.70
2023-03-20T18:51:03.799Z,26.70
2023-03-20T18:53:11.772Z,26.70
2023-03-20T18:55:18.522Z,26.80
2023-03-20T18:57:25.445Z,26.70
2023-03-20T18:59:32.123Z,26.70
2023-03-20T19:01:40.897Z,26.70
2023-03-20T19:03:48.642Z,26.60
2023-03-20T19:05:56.528Z,26.60
2023-03-20T19:08:04.329Z,26.50
2023-03-20T19:10:23.588Z,26.50
2023-03-20T19:12:30.261Z,26.50
2023-03-20T19:14:37.246Z,26.50
2023-03-20T19:16:45.798Z,26.50
2023-03-20T19:18:53.597Z,26.50
2023-03-20T19:21:01.046Z,26.60
2023-03-20T19:23:09.138Z,26.60
2023-03-20T19:25:15.860Z,26.50
2023-03-20T19:27:22.902Z,26.50
2023-03-20T19:29:29.913Z,26.30
2023-03-20T19:31:37.200Z,26.30
2023-03-20T19:33:46.071Z,26.20
2023-03-20T19:36:08.927Z,26.20
2023-03-20T19:38:18.000Z,26.20
2023-03-20T19:40:32.751Z,26.30
2023-03-20T19:42:58.861Z,26.30
2023-03-20T19:45:07.040Z,26.30
2023-03-20T19:47:14.152Z,26.30
2023-03-20T19:49:30.792Z,26.30
2023-03-20T19:51:37.792Z,26.30
2023-03-20T19:53:44.771Z,26.30
2023-03-20T19:55:51.438Z,26.30
2023-03-20T19:57:59.081Z,26.30
2023-03-20T20:00:55.804Z,26.30
2023-03-20T20:02:33.686Z,26.20
2023-03-20T20:04:42.436Z,26.10
2023-03-20T20:06:49.827Z,26.10
2023-03-20T20:08:56.802Z,26.10
2023-03-20T20:11:04.134Z,26.10
2023-03-20T20:13:11.584Z,26.10
2023-03-20T20:15:20.238Z,26.00
2023-03-20T20:17:27.469Z,26.00
2023-03-20T20:19:36.095Z,26.00
2023-03-20T20:24:12.476Z,26.00
2023-03-20T20:26:19.391Z,25.90
2023-03-20T20:28:27.116Z,25.80
2023-03-20T20:30:33.904Z,25.80
2023-03-20T20:32:41.728Z,25.80
2023-03-20T20:39:44.037Z,25.70
2023-03-20T20:41:51.849Z,25.70
2023-03-20T20:44:26.176Z,25.70
2023-03-20T20:46:26.718Z,25.70
2023-03-20T20:48:33.823Z,25.80
2023-03-20T20:50:41.896Z,25.80
2023-03-20T20:52:50.850Z,25.90
2023-03-20T20:55:04.859Z,25.90
2023-03-20T20:57:18.940Z,25.90
2023-03-20T20:59:26.271Z,25.90
2023-03-20T21:01:33.105Z,25.90
2023-03-20T21:03:40.069Z,25.80
2023-03-20T21:05:47.048Z,25.80
2023-03-20T21:07:56.382Z,25.90
2023-03-20T21:10:03.151Z,25.90
2023-03-20T21:12:22.655Z,25.90
2023-03-20T21:14:37.495Z,25.90
2023-03-20T21:16:44.463Z,26.00
2023-03-20T21:18:51.364Z,25.90
2023-03-20T21:21:05.796Z,25.90
2023-03-20T21:23:14.503Z,25.90
2023-03-20T21:25:36.388Z,25.90
2023-03-20T21:27:45.989Z,25.90
2023-03-20T21:29:53.273Z,25.90
2023-03-20T21:32:00.374Z,25.80
2023-03-20T21:34:07.881Z,25.80
2023-03-20T21:36:14.684Z,25.80
2023-03-20T21:40:51.538Z,25.80
2023-03-20T21:42:59.643Z,25.80
2023-03-20T21:55:40.711Z,25.60
2023-03-20T21:58:04.270Z,25.60
2023-03-20T22:00:43.923Z,25.50
2023-03-20T22:03:29.046Z,25.50
2023-03-20T22:06:59.149Z,25.50
2023-03-20T22:21:33.802Z,25.40
2023-03-20T22:24:05.704Z,25.40
2023-03-20T22:36:18.603Z,25.30
2023-03-20T22:43:31.899Z,25.30
2023-03-20T22:47:29.666Z,25.30
2023-03-20T22:49:36.494Z,25.20
2023-03-20T22:52:02.966Z,25.20
2023-03-20T22:54:11.438Z,25.20
2023-03-20T22:56:19.284Z,25.20
2023-03-20T22:58:26.307Z,25.20
2023-03-20T23:00:35.060Z,25.20
2023-03-20T23:02:42.984Z,25.30
2023-03-20T23:04:50.226Z,25.30
2023-03-20T23:06:57.856Z,25.30
2023-03-20T23:09:14.436Z,25.30
2023-03-20T23:11:22.880Z,25.30
2023-03-20T23:13:30.050Z,25.40
2023-03-20T23:15:39.384Z,25.30
2023-03-20T23:17:46.564Z,25.30
2023-03-20T23:20:04.925Z,25.40
2023-03-20T23:22:15.109Z,25.40
2023-03-20T23:24:23.069Z,25.40
2023-03-20T23:26:30.240Z,25.40
2023-03-20T23:28:38.548Z,25.40
2023-03-20T23:30:56.776Z,25.40
2023-03-20T23:33:14.829Z,25.50
2023-03-20T23:35:22.121Z,25.50
2023-03-20T23:37:29.343Z,25.50
2023-03-20T23:39:36.221Z,25.50
2023-03-20T23:42:06.147Z,25.50
2023-03-20T23:44:11.676Z,25.50
2023-03-20T23:46:20.717Z,25.50
2023-03-20T23:48:28.192Z,25.50
2023-03-20T23:50:49.954Z,25.50
2023-03-20T23:53:13.229Z,25.40
2023-03-20T23:55:26.752Z,25.50
2023-03-20T23:57:33.975Z,25.50
2023-03-20T23:59:41.168Z,25.50
